createdAt,value
2018-10-05T00:01:30.809Z,11.27
2018-10-05T00:03:59.280Z,11.63
2018-10-05T00:06:27.788Z,11.30
2018-10-05T00:08:56.470Z,12.23
2018-10-05T00:11:24.961Z,12.27
2018-10-05T00:13:53.459Z,11.77
2018-10-05T00:16:21.917Z,10.40
2018-10-05T00:18:50.455Z,9.93
2018-10-05T00:21:19.216Z,10.90
2018-10-05T00:23:47.830Z,10.50
2018-10-05T00:26:16.377Z,10.07
2018-10-05T00:28:44.917Z,11.33
2018-10-05T00:31:14.060Z,10.43
2018-10-05T00:33:42.852Z,10.77
2018-10-05T00:36:11.405Z,10.77
2018-10-05T00:38:39.846Z,10.47
2018-10-05T00:41:08.421Z,10.53
2018-10-05T00:43:36.971Z,9.23
2018-10-05T00:46:05.765Z,10.63
2018-10-05T00:48:34.266Z,10.50
2018-10-05T00:51:03.029Z,11.33
2018-10-05T00:53:31.663Z,9.73
2018-10-05T00:56:00.716Z,10.87
2018-10-05T00:58:29.418Z,10.77
2018-10-05T01:00:58.103Z,9.83
2018-10-05T01:03:26.704Z,10.90
2018-10-05T01:05:55.283Z,10.37
2018-10-05T01:08:23.821Z,10.83
2018-10-05T01:10:52.396Z,10.60
2018-10-05T01:13:20.840Z,10.27
2018-10-05T01:15:49.347Z,10.20
2018-10-05T01:18:19.363Z,9.50
2018-10-05T01:20:48.641Z,9.53
2018-10-05T01:23:18.255Z,10.23
2018-10-05T01:25:47.072Z,9.30
2018-10-05T01:28:15.508Z,9.90
2018-10-05T01:30:44.171Z,10.50
2018-10-05T01:33:12.734Z,9.17
2018-10-05T01:35:41.153Z,10.97
2018-10-05T01:38:09.718Z,9.60
2018-10-05T01:40:38.313Z,10.47
2018-10-05T01:43:06.780Z,11.17
2018-10-05T01:45:35.417Z,9.73
2018-10-05T01:48:04.270Z,10.63
2018-10-05T01:50:32.813Z,9.90
2018-10-05T01:53:01.269Z,9.97
2018-10-05T01:55:30.019Z,9.27
2018-10-05T01:57:58.672Z,10.33
2018-10-05T02:00:27.278Z,10.00
2018-10-05T02:02:56.055Z,9.10
2018-10-05T02:05:24.853Z,9.18
2018-10-05T02:07:53.317Z,10.07
2018-10-05T02:10:21.856Z,9.48
2018-10-05T02:12:50.426Z,10.50
2018-10-05T02:15:19.253Z,9.50
2018-10-05T02:17:47.994Z,9.87
2018-10-05T02:20:16.573Z,9.87
2018-10-05T02:22:45.384Z,8.63
2018-10-05T02:25:13.944Z,8.70
2018-10-05T02:27:43.545Z,8.13
2018-10-05T02:30:12.125Z,8.53
2018-10-05T02:32:40.587Z,9.60
2018-10-05T02:35:09.233Z,9.77
2018-10-05T02:37:38.577Z,10.23
2018-10-05T02:40:07.643Z,9.95
2018-10-05T02:42:36.214Z,9.23
2018-10-05T02:45:05.262Z,9.87
2018-10-05T02:47:33.756Z,8.93
2018-10-05T02:50:02.215Z,9.07
2018-10-05T02:52:30.815Z,9.30
2018-10-05T02:54:59.368Z,9.37
2018-10-05T02:57:27.960Z,9.63
2018-10-05T02:59:56.647Z,8.60
2018-10-05T03:02:32.567Z,9.20
2018-10-05T03:05:01.063Z,8.63
2018-10-05T03:07:30.551Z,9.03
2018-10-05T03:10:00.006Z,8.27
2018-10-05T03:12:29.119Z,9.17
2018-10-05T03:14:57.760Z,8.70
2018-10-05T03:17:26.924Z,8.70
2018-10-05T03:19:55.564Z,8.20
2018-10-05T03:22:23.984Z,9.10
2018-10-05T03:24:53.025Z,8.97
2018-10-05T03:27:21.805Z,9.00
2018-10-05T03:29:50.381Z,8.90
2018-10-05T03:32:18.817Z,8.53
2018-10-05T03:34:47.478Z,9.13
2018-10-05T03:37:16.201Z,8.77
2018-10-05T03:39:44.797Z,9.53
2018-10-05T03:42:13.972Z,8.37
2018-10-05T03:44:42.490Z,9.00
2018-10-05T03:47:11.042Z,9.33
2018-10-05T03:49:39.674Z,8.77
2018-10-05T03:52:08.364Z,8.60
2018-10-05T03:54:36.995Z,8.57
2018-10-05T03:57:07.097Z,8.90
2018-10-05T03:59:36.445Z,7.67
2018-10-05T04:02:05.369Z,8.60
2018-10-05T04:04:33.826Z,9.00
2018-10-05T04:07:03.090Z,8.60
2018-10-05T04:09:31.510Z,8.33
2018-10-05T04:12:00.052Z,8.27
2018-10-05T04:14:28.659Z,8.90
2018-10-05T04:16:57.169Z,8.50
2018-10-05T04:19:25.757Z,8.60
2018-10-05T04:21:54.379Z,8.53
2018-10-05T04:24:22.936Z,9.77
2018-10-05T04:26:52.470Z,9.53
2018-10-05T04:29:21.126Z,8.73
2018-10-05T04:31:49.664Z,8.43
2018-10-05T04:34:18.144Z,9.00
2018-10-05T04:36:46.662Z,8.77
2018-10-05T04:39:15.223Z,9.33
2018-10-05T04:41:43.867Z,8.63
2018-10-05T04:44:12.447Z,8.80
2018-10-05T04:46:55.975Z,8.40
2018-10-05T04:49:41.764Z,9.77
2018-10-05T04:55:07.484Z,8.77
2018-10-05T04:57:36.047Z,36.73
2018-10-05T05:00:05.342Z,15.10
2018-10-05T05:02:34.529Z,65.30
2018-10-05T05:05:03.163Z,28.83
2018-10-05T05:07:32.814Z,28.63
2018-10-05T05:10:01.361Z,16.27
2018-10-05T05:12:29.813Z,8.70
2018-10-05T05:14:59.025Z,19.23
2018-10-05T05:17:27.658Z,9.47
2018-10-05T05:19:56.394Z,8.97
2018-10-05T05:22:24.815Z,9.43
2018-10-05T05:24:53.293Z,9.03
2018-10-05T05:27:21.880Z,7.60
2018-10-05T05:29:50.830Z,9.00
2018-10-05T05:32:19.656Z,8.37
2018-10-05T05:34:48.316Z,8.40
2018-10-05T05:37:17.553Z,8.37
2018-10-05T05:39:46.074Z,8.40
2018-10-05T05:42:15.255Z,8.83
2018-10-05T05:44:43.840Z,8.57
2018-10-05T05:47:18.726Z,8.93
2018-10-05T05:49:47.262Z,9.10
2018-10-05T05:52:15.731Z,8.00
2018-10-05T05:54:44.315Z,8.43
2018-10-05T05:57:13.474Z,9.10
2018-10-05T05:59:42.329Z,8.70
2018-10-05T06:02:10.928Z,9.03
2018-10-05T06:04:39.656Z,8.47
2018-10-05T06:07:08.125Z,8.57
2018-10-05T06:09:36.700Z,9.03
2018-10-05T06:12:05.248Z,8.90
2018-10-05T06:14:33.842Z,9.60
2018-10-05T06:17:02.480Z,9.27
2018-10-05T06:19:31.257Z,8.23
2018-10-05T06:21:59.903Z,9.57
2018-10-05T06:24:28.115Z,8.63
2018-10-05T06:26:57.483Z,9.83
2018-10-05T06:29:26.983Z,9.67
2018-10-05T06:31:55.504Z,9.63
2018-10-05T06:34:24.619Z,9.83
2018-10-05T06:36:53.056Z,9.03
2018-10-05T06:39:21.510Z,9.90
2018-10-05T06:41:50.535Z,9.47
2018-10-05T06:44:19.022Z,9.90
2018-10-05T06:46:47.698Z,9.30
2018-10-05T06:49:16.282Z,9.50
2018-10-05T06:51:45.720Z,9.33
2018-10-05T06:54:14.924Z,9.57
2018-10-05T06:56:44.012Z,10.87
2018-10-05T06:59:12.536Z,9.37
2018-10-05T07:01:41.088Z,9.63
2018-10-05T07:04:09.765Z,9.47
2018-10-05T07:06:38.259Z,9.73
2018-10-05T07:09:07.815Z,9.77
2018-10-05T07:11:37.025Z,9.87
2018-10-05T07:14:05.460Z,10.60
2018-10-05T07:16:33.949Z,10.57
2018-10-05T07:19:02.570Z,10.27
2018-10-05T07:21:31.105Z,9.57
2018-10-05T07:23:59.594Z,10.47
2018-10-05T07:26:28.009Z,10.37
2018-10-05T07:28:56.629Z,10.07
2018-10-05T07:31:25.241Z,10.57
2018-10-05T07:34:00.131Z,11.00
2018-10-05T07:36:28.804Z,10.82
2018-10-05T07:38:57.829Z,11.13
2018-10-05T07:41:26.609Z,10.63
2018-10-05T07:43:55.066Z,11.27
2018-10-05T07:46:23.796Z,11.97
2018-10-05T07:48:52.427Z,11.67
2018-10-05T07:51:23.933Z,11.07
2018-10-05T07:53:53.077Z,11.57
2018-10-05T07:56:21.752Z,11.60
2018-10-05T07:58:50.261Z,10.87
2018-10-05T08:01:18.755Z,10.83
2018-10-05T08:03:47.484Z,11.53
2018-10-05T08:06:16.326Z,11.57
2018-10-05T08:08:46.022Z,11.97
2018-10-05T08:11:15.162Z,12.10
2018-10-05T08:13:44.448Z,12.30
2018-10-05T08:16:12.902Z,12.00
2018-10-05T08:18:41.384Z,12.00
2018-10-05T08:21:10.096Z,11.40
2018-10-05T08:23:38.763Z,11.60
2018-10-05T08:26:07.341Z,10.63
2018-10-05T08:28:36.020Z,12.10
2018-10-05T08:31:04.497Z,11.95
2018-10-05T08:33:33.080Z,11.40
2018-10-05T08:36:01.720Z,12.83
2018-10-05T08:38:30.322Z,12.10
2018-10-05T08:40:58.848Z,12.30
2018-10-05T08:43:28.356Z,12.27
2018-10-05T08:45:57.083Z,12.03
2018-10-05T08:48:25.546Z,12.47
2018-10-05T08:50:54.098Z,10.50
2018-10-05T08:53:22.600Z,11.27
2018-10-05T08:55:51.201Z,10.77
2018-10-05T08:58:20.384Z,11.27
2018-10-05T09:00:49.524Z,12.20
2018-10-05T09:03:18.140Z,12.50
2018-10-05T09:05:46.903Z,11.70
2018-10-05T09:08:15.572Z,11.53
2018-10-05T09:10:44.246Z,11.37
2018-10-05T09:13:12.819Z,11.80
2018-10-05T09:15:41.481Z,12.20
2018-10-05T09:18:10.156Z,12.40
2018-10-05T09:20:38.693Z,11.27
2018-10-05T09:23:08.354Z,10.67
2018-10-05T09:25:36.980Z,10.70
2018-10-05T09:28:05.561Z,11.77
2018-10-05T09:30:34.223Z,11.00
2018-10-05T09:33:02.586Z,10.63
2018-10-05T09:35:31.080Z,11.17
2018-10-05T09:38:00.630Z,10.07
2018-10-05T09:40:29.083Z,10.67
2018-10-05T09:42:57.678Z,9.27
2018-10-05T09:45:26.211Z,10.60
2018-10-05T09:47:54.885Z,9.93
2018-10-05T09:50:23.604Z,8.97
2018-10-05T09:52:52.757Z,10.07
2018-10-05T09:55:21.202Z,9.03
2018-10-05T09:57:49.855Z,9.60
2018-10-05T10:00:23.817Z,9.03
2018-10-05T10:02:57.842Z,9.80
2018-10-05T10:05:26.404Z,9.50
2018-10-05T10:07:55.246Z,7.90
2018-10-05T10:10:24.120Z,8.40
2018-10-05T10:12:52.620Z,9.33
2018-10-05T10:15:21.242Z,7.90
2018-10-05T10:17:50.861Z,8.13
2018-10-05T10:20:19.582Z,7.60
2018-10-05T10:22:48.273Z,8.85
2018-10-05T10:25:17.131Z,7.57
2018-10-05T10:27:45.770Z,7.80
2018-10-05T10:30:14.132Z,7.80
2018-10-05T10:32:42.819Z,7.85
2018-10-05T10:35:12.259Z,8.18
2018-10-05T10:37:40.814Z,7.22
2018-10-05T10:40:09.345Z,7.33
2018-10-05T10:42:37.905Z,8.40
2018-10-05T10:45:06.974Z,7.24
2018-10-05T10:47:35.453Z,8.43
2018-10-05T10:50:04.242Z,8.13
2018-10-05T10:52:32.659Z,7.87
2018-10-05T10:55:01.795Z,6.80
2018-10-05T10:57:30.517Z,6.90
2018-10-05T10:59:59.001Z,7.50
2018-10-05T11:02:27.473Z,7.62
2018-10-05T11:04:56.617Z,7.33
2018-10-05T11:07:25.245Z,6.25
2018-10-05T11:09:54.459Z,5.47
2018-10-05T11:12:23.317Z,5.67
2018-10-05T11:14:51.981Z,5.05
2018-10-05T11:17:20.488Z,5.42
2018-10-05T11:19:49.190Z,5.10
2018-10-05T11:22:18.297Z,5.10
2018-10-05T11:24:47.014Z,4.92
2018-10-05T11:27:15.648Z,4.75
2018-10-05T11:29:44.994Z,4.70
2018-10-05T11:32:13.775Z,4.80
2018-10-05T11:34:42.350Z,4.33
2018-10-05T11:37:10.838Z,3.80
2018-10-05T11:39:39.309Z,4.12
2018-10-05T11:42:08.036Z,4.20
2018-10-05T11:44:37.484Z,3.83
2018-10-05T11:47:06.085Z,3.92
2018-10-05T11:49:34.904Z,3.55
2018-10-05T11:52:04.274Z,4.17
2018-10-05T11:54:32.753Z,3.22
2018-10-05T11:57:02.214Z,3.40
2018-10-05T11:59:31.191Z,3.70
2018-10-05T12:01:59.590Z,3.65
2018-10-05T12:04:28.706Z,3.85
2018-10-05T12:06:57.465Z,3.65
2018-10-05T12:09:26.032Z,3.70
2018-10-05T12:11:55.122Z,3.77
2018-10-05T12:14:23.636Z,3.52
2018-10-05T12:16:52.117Z,4.25
2018-10-05T12:19:21.156Z,3.70
2018-10-05T12:21:49.731Z,4.20
2018-10-05T12:24:18.368Z,3.37
2018-10-05T12:26:46.941Z,3.50
2018-10-05T12:29:15.505Z,3.58
2018-10-05T12:31:44.666Z,4.83
2018-10-05T12:34:13.216Z,3.08
2018-10-05T12:36:41.768Z,3.70
2018-10-05T12:39:10.460Z,3.45
2018-10-05T12:41:39.440Z,3.85
2018-10-05T12:44:08.325Z,3.35
2018-10-05T12:46:37.270Z,3.60
2018-10-05T12:49:06.199Z,3.95
2018-10-05T12:51:34.812Z,3.47
2018-10-05T12:54:03.272Z,3.40
2018-10-05T12:56:32.368Z,3.35
2018-10-05T12:59:00.842Z,3.08
2018-10-05T13:01:29.363Z,3.27
2018-10-05T13:03:58.226Z,3.08
2018-10-05T13:06:26.752Z,3.40
2018-10-05T13:08:55.516Z,3.25
2018-10-05T13:11:25.002Z,3.27
2018-10-05T13:13:53.624Z,2.80
2018-10-05T13:16:22.052Z,3.15
2018-10-05T13:18:50.699Z,3.00
2018-10-05T13:21:19.345Z,3.02
2018-10-05T13:23:48.497Z,2.90
2018-10-05T13:26:21.440Z,2.55
2018-10-05T13:28:50.052Z,3.08
2018-10-05T13:31:18.557Z,3.02
2018-10-05T13:33:47.218Z,2.92
2018-10-05T13:36:16.582Z,3.57
2018-10-05T13:38:45.171Z,2.70
2018-10-05T13:41:14.349Z,2.77
2018-10-05T13:43:43.230Z,2.72
2018-10-05T13:46:18.369Z,2.90
2018-10-05T13:48:47.048Z,2.77
2018-10-05T13:51:15.565Z,2.92
2018-10-05T13:53:44.282Z,3.05
2018-10-05T13:56:13.756Z,2.70
2018-10-05T13:58:42.349Z,2.70
2018-10-05T14:01:11.025Z,2.50
2018-10-05T14:03:39.533Z,2.50
2018-10-05T14:06:08.363Z,2.40
2018-10-05T14:08:36.943Z,3.00
2018-10-05T14:11:06.099Z,4.28
2018-10-05T14:13:35.490Z,2.98
2018-10-05T14:16:04.113Z,3.22
2018-10-05T14:18:32.698Z,2.92
2018-10-05T14:21:01.311Z,4.45
2018-10-05T14:23:30.645Z,3.67
2018-10-05T14:25:59.322Z,4.45
2018-10-05T14:28:27.920Z,2.67
2018-10-05T14:30:56.394Z,3.08
2018-10-05T14:33:24.883Z,2.33
2018-10-05T14:35:53.521Z,2.70
2018-10-05T14:38:22.690Z,2.92
2018-10-05T14:40:51.271Z,2.58
2018-10-05T14:43:19.742Z,2.65
2018-10-05T14:45:48.434Z,2.52
2018-10-05T14:48:17.047Z,2.40
2018-10-05T14:50:45.620Z,2.65
2018-10-05T14:53:14.256Z,2.20
2018-10-05T14:55:42.754Z,2.40
2018-10-05T14:58:11.444Z,2.10
2018-10-05T15:00:40.002Z,2.42
2018-10-05T15:03:08.647Z,2.30
2018-10-05T15:05:37.255Z,3.00
2018-10-05T15:08:06.009Z,3.00
2018-10-05T15:10:34.626Z,2.20
2018-10-05T15:13:03.243Z,2.52
2018-10-05T15:15:31.923Z,2.62
2018-10-05T15:18:01.441Z,2.33
2018-10-05T15:20:30.245Z,2.80
2018-10-05T15:22:58.974Z,2.95
2018-10-05T15:25:27.617Z,2.72
2018-10-05T15:27:56.286Z,2.72
2018-10-05T15:30:24.977Z,2.50
2018-10-05T15:32:54.066Z,2.75
2018-10-05T15:35:22.558Z,2.20
2018-10-05T15:37:51.152Z,2.08
2018-10-05T15:40:19.860Z,2.00
2018-10-05T15:42:48.348Z,2.30
